Terminal Aerodrome Forecast
Issued by NWS

Home | Current Version | Previous Version | Text Only | Print | Product List | Glossary On
Versions: 1 2 3 4 5 6 7 8 9 10 11 12 13 14 15 16 17 18 19 20 21
868
FTUS43 KOAX 261405 AAA
TAFSNY
TAF AMD
KSNY 261405Z 2614/2712 34015KT P6SM FEW013
     FM261900 32013G20KT P6SM BKN100
     FM270000 35008KT P6SM VCSH BKN050 OVC100=

USA.gov is the U.S. government's official web portal to all federal, state and local government web resources and services.